sensor_id;sensor_type;location;lat;lon;timestamp;pressure;altitude;pressure_sealevel;temperature;humidity
42415;BME280;28058;46.344;17.786;2023-02-25T00:00:33;118336.50;;;-144.97;94.13
42415;BME280;28058;46.344;17.786;2023-02-25T00:03:00;118336.50;;;-144.97;94.14
42415;BME280;28058;46.344;17.786;2023-02-25T00:05:27;118336.50;;;-144.97;93.92
42415;BME280;28058;46.344;17.786;2023-02-25T00:07:57;118336.50;;;-144.97;94.05
42415;BME280;28058;46.344;17.786;2023-02-25T00:10:23;118336.50;;;-144.97;93.13
42415;BME280;28058;46.344;17.786;2023-02-25T00:12:50;118336.50;;;-144.97;92.79
42415;BME280;28058;46.344;17.786;2023-02-25T00:15:17;118336.50;;;-144.97;93.47
42415;BME280;28058;46.344;17.786;2023-02-25T00:17:44;118336.50;;;-144.97;92.88
42415;BME280;28058;46.344;17.786;2023-02-25T00:20:10;118336.50;;;-144.97;92.92
42415;BME280;28058;46.344;17.786;2023-02-25T00:22:39;118336.50;;;-144.97;92.92
42415;BME280;28058;46.344;17.786;2023-02-25T00:25:05;118336.50;;;-144.97;93.36
42415;BME280;28058;46.344;17.786;2023-02-25T00:27:32;118336.50;;;-144.97;93.80
42415;BME280;28058;46.344;17.786;2023-02-25T00:29:59;118336.50;;;-144.97;93.65
42415;BME280;28058;46.344;17.786;2023-02-25T00:32:26;118336.50;;;-144.97;94.57
42415;BME280;28058;46.344;17.786;2023-02-25T00:34:52;118336.50;;;-144.97;95.52
42415;BME280;28058;46.344;17.786;2023-02-25T00:37:19;118336.50;;;-144.97;96.46
42415;BME280;28058;46.344;17.786;2023-02-25T00:39:46;118336.50;;;-144.97;96.99
42415;BME280;28058;46.344;17.786;2023-02-25T00:42:14;118336.50;;;-144.97;98.19
42415;BME280;28058;46.344;17.786;2023-02-25T00:44:50;118336.50;;;-144.97;99.96
42415;BME280;28058;46.344;17.786;2023-02-25T00:47:17;118336.50;;;-144.97;100.00
42415;BME280;28058;46.344;17.786;2023-02-25T00:49:45;118336.50;;;-144.97;100.00
42415;BME280;28058;46.344;17.786;2023-02-25T00:52:15;118336.50;;;-144.97;100.00
42415;BME280;28058;46.344;17.786;2023-02-25T00:54:41;118336.50;;;-144.97;100.00
42415;BME280;28058;46.344;17.786;2023-02-25T00:57:08;118336.50;;;-144.97;100.00
42415;BME280;28058;46.344;17.786;2023-02-25T00:59:35;118336.50;;;-144.97;100.00
42415;BME280;28058;46.344;17.786;2023-02-25T01:02:01;118336.50;;;-144.97;100.00
42415;BME280;28058;46.344;17.786;2023-02-25T01:04:28;118336.50;;;-144.97;100.00
42415;BME280;28058;46.344;17.786;2023-02-25T01:06:55;118336.50;;;-144.97;100.00
42415;BME280;28058;46.344;17.786;2023-02-25T01:09:22;118336.50;;;-144.97;100.00
42415;BME280;28058;46.344;17.786;2023-02-25T01:11:48;118336.50;;;-144.97;100.00
42415;BME280;28058;46.344;17.786;2023-02-25T01:14:16;118336.50;;;-144.97;100.00
42415;BME280;28058;46.344;17.786;2023-02-25T01:16:46;118336.50;;;-144.97;100.00
42415;BME280;28058;46.344;17.786;2023-02-25T01:19:20;118336.50;;;-144.97;100.00
42415;BME280;28058;46.344;17.786;2023-02-25T01:21:47;118336.50;;;-144.97;100.00
42415;BME280;28058;46.344;17.786;2023-02-25T01:24:15;118336.50;;;-144.97;100.00
42415;BME280;28058;46.344;17.786;2023-02-25T01:26:43;118336.50;;;-144.97;100.00
42415;BME280;28058;46.344;17.786;2023-02-25T01:29:12;118336.50;;;-144.97;100.00
42415;BME280;28058;46.344;17.786;2023-02-25T01:31:39;118336.50;;;-144.97;100.00
42415;BME280;28058;46.344;17.786;2023-02-25T01:34:07;118336.50;;;-144.97;100.00
42415;BME280;28058;46.344;17.786;2023-02-25T01:36:35;118336.50;;;-144.97;100.00
42415;BME280;28058;46.344;17.786;2023-02-25T01:39:02;118336.50;;;-144.97;100.00
42415;BME280;28058;46.344;17.786;2023-02-25T01:41:29;118336.50;;;-144.97;100.00
42415;BME280;28058;46.344;17.786;2023-02-25T01:46:42;118336.50;;;-144.97;100.00
42415;BME280;28058;46.344;17.786;2023-02-25T01:49:10;118336.50;;;-144.97;100.00
42415;BME280;28058;46.344;17.786;2023-02-25T01:51:39;118336.50;;;-144.97;100.00
42415;BME280;28058;46.344;17.786;2023-02-25T01:54:07;118336.50;;;-144.97;100.00
42415;BME280;28058;46.344;17.786;2023-02-25T01:56:35;118336.50;;;-144.97;100.00
42415;BME280;28058;46.344;17.786;2023-02-25T01:59:02;118336.50;;;-144.97;100.00
42415;BME280;28058;46.344;17.786;2023-02-25T02:01:30;118336.50;;;-144.97;100.00
42415;BME280;28058;46.344;17.786;2023-02-25T02:04:01;118336.50;;;-144.97;100.00
42415;BME280;28058;46.344;17.786;2023-02-25T02:06:33;118336.50;;;-144.97;100.00
42415;BME280;28058;46.344;17.786;2023-02-25T02:09:01;118336.50;;;-144.97;100.00
42415;BME280;28058;46.344;17.786;2023-02-25T02:11:28;118336.50;;;-144.97;100.00
42415;BME280;28058;46.344;17.786;2023-02-25T02:13:55;118336.50;;;-144.97;100.00
42415;BME280;28058;46.344;17.786;2023-02-25T02:18:57;118336.50;;;-144.97;100.00
42415;BME280;28058;46.344;17.786;2023-02-25T02:37:06;118336.50;;;-144.97;100.00
42415;BME280;28058;46.344;17.786;2023-02-25T02:44:44;118336.50;;;-144.97;100.00
42415;BME280;28058;46.344;17.786;2023-02-25T02:47:33;118336.50;;;-144.97;100.00
42415;BME280;28058;46.344;17.786;2023-02-25T02:50:03;118336.50;;;-144.97;100.00
42415;BME280;28058;46.344;17.786;2023-02-25T02:52:32;118336.50;;;-144.97;100.00
42415;BME280;28058;46.344;17.786;2023-02-25T02:55:05;118336.50;;;-144.97;100.00
42415;BME280;28058;46.344;17.786;2023-02-25T02:57:33;118336.50;;;-144.97;100.00
42415;BME280;28058;46.344;17.786;2023-02-25T03:00:04;118336.50;;;-144.97;100.00
42415;BME280;28058;46.344;17.786;2023-02-25T03:02:44;118336.50;;;-144.97;100.00
42415;BME280;28058;46.344;17.786;2023-02-25T03:05:14;118336.50;;;-144.97;100.00
42415;BME280;28058;46.344;17.786;2023-02-25T03:07:44;118336.50;;;-144.97;100.00
42415;BME280;28058;46.344;17.786;2023-02-25T03:10:13;118336.50;;;-144.97;100.00
42415;BME280;28058;46.344;17.786;2023-02-25T03:12:41;118336.50;;;-144.97;100.00
42415;BME280;28058;46.344;17.786;2023-02-25T03:15:08;118336.50;;;-144.97;100.00
42415;BME280;28058;46.344;17.786;2023-02-25T03:17:38;118336.50;;;-144.97;100.00
42415;BME280;28058;46.344;17.786;2023-02-25T03:20:17;118336.50;;;-144.97;100.00
42415;BME280;28058;46.344;17.786;2023-02-25T03:22:47;118336.50;;;-144.97;100.00
42415;BME280;28058;46.344;17.786;2023-02-25T03:27:44;118336.50;;;-144.97;100.00
42415;BME280;28058;46.344;17.786;2023-02-25T03:30:14;118336.50;;;-144.97;100.00
42415;BME280;28058;46.344;17.786;2023-02-25T03:32:46;118336.50;;;-144.97;100.00
42415;BME280;28058;46.344;17.786;2023-02-25T03:35:15;118336.50;;;-144.97;100.00
42415;BME280;28058;46.344;17.786;2023-02-25T03:37:44;118336.50;;;-144.97;100.00
42415;BME280;28058;46.344;17.786;2023-02-25T03:40:13;118336.50;;;-144.97;100.00
42415;BME280;28058;46.344;17.786;2023-02-25T03:42:42;118336.50;;;-144.97;100.00
42415;BME280;28058;46.344;17.786;2023-02-25T03:45:10;118336.50;;;-144.97;100.00
42415;BME280;28058;46.344;17.786;2023-02-25T03:47:39;118336.50;;;-144.97;100.00
42415;BME280;28058;46.344;17.786;2023-02-25T03:50:08;118336.50;;;-144.97;100.00
42415;BME280;28058;46.344;17.786;2023-02-25T03:52:37;118336.50;;;-144.97;100.00
42415;BME280;28058;46.344;17.786;2023-02-25T03:55:04;118336.50;;;-144.97;100.00
42415;BME280;28058;46.344;17.786;2023-02-25T03:57:36;118336.50;;;-144.97;100.00
42415;BME280;28058;46.344;17.786;2023-02-25T04:00:04;118336.50;;;-144.97;100.00
42415;BME280;28058;46.344;17.786;2023-02-25T04:02:41;118336.50;;;-144.97;100.00
42415;BME280;28058;46.344;17.786;2023-02-25T04:05:07;118336.50;;;-144.97;100.00
42415;BME280;28058;46.344;17.786;2023-02-25T04:07:35;118336.50;;;-144.97;100.00
42415;BME280;28058;46.344;17.786;2023-02-25T04:10:03;118336.50;;;-144.97;100.00
42415;BME280;28058;46.344;17.786;2023-02-25T04:12:30;118336.50;;;-144.97;100.00
42415;BME280;28058;46.344;17.786;2023-02-25T04:14:56;118336.50;;;-144.97;100.00
42415;BME280;28058;46.344;17.786;2023-02-25T04:17:23;118336.50;;;-144.97;100.00
42415;BME280;28058;46.344;17.786;2023-02-25T04:19:50;118336.50;;;-144.97;100.00
42415;BME280;28058;46.344;17.786;2023-02-25T04:22:16;118336.50;;;-144.97;100.00
42415;BME280;28058;46.344;17.786;2023-02-25T04:24:43;118336.50;;;-144.97;100.00
42415;BME280;28058;46.344;17.786;2023-02-25T04:27:10;118336.50;;;-144.97;100.00
42415;BME280;28058;46.344;17.786;2023-02-25T04:29:36;118336.50;;;-144.97;100.00
42415;BME280;28058;46.344;17.786;2023-02-25T04:32:03;118336.50;;;-144.97;100.00
42415;BME280;28058;46.344;17.786;2023-02-25T04:34:30;118336.50;;;-144.97;100.00
42415;BME280;28058;46.344;17.786;2023-02-25T04:36:57;118336.50;;;-144.97;100.00
42415;BME280;28058;46.344;17.786;2023-02-25T04:39:23;118336.50;;;-144.97;100.00
42415;BME280;28058;46.344;17.786;2023-02-25T04:41:50;118336.50;;;-144.97;100.00
42415;BME280;28058;46.344;17.786;2023-02-25T04:44:16;118336.50;;;-144.97;100.00
42415;BME280;28058;46.344;17.786;2023-02-25T04:46:43;118336.50;;;-144.97;100.00
42415;BME280;28058;46.344;17.786;2023-02-25T04:49:10;118336.50;;;-144.97;100.00
42415;BME280;28058;46.344;17.786;2023-02-25T04:51:37;118336.50;;;-144.97;100.00
42415;BME280;28058;46.344;17.786;2023-02-25T04:54:04;118336.50;;;-144.97;100.00
42415;BME280;28058;46.344;17.786;2023-02-25T04:56:31;118336.50;;;-144.97;100.00
42415;BME280;28058;46.344;17.786;2023-02-25T04:58:57;118336.50;;;-144.97;100.00
42415;BME280;28058;46.344;17.786;2023-02-25T05:01:24;118336.50;;;-144.97;100.00
42415;BME280;28058;46.344;17.786;2023-02-25T05:03:51;118336.50;;;-144.97;100.00
42415;BME280;28058;46.344;17.786;2023-02-25T05:06:26;118336.50;;;-144.97;100.00
42415;BME280;28058;46.344;17.786;2023-02-25T05:08:58;118336.50;;;-144.97;100.00
42415;BME280;28058;46.344;17.786;2023-02-25T05:11:35;118336.50;;;-144.97;100.00
42415;BME280;28058;46.344;17.786;2023-02-25T05:14:02;118336.50;;;-144.97;100.00
42415;BME280;28058;46.344;17.786;2023-02-25T05:16:28;118336.50;;;-144.97;100.00
42415;BME280;28058;46.344;17.786;2023-02-25T05:18:55;118336.50;;;-144.97;100.00
42415;BME280;28058;46.344;17.786;2023-02-25T05:21:23;118336.50;;;-144.97;100.00
42415;BME280;28058;46.344;17.786;2023-02-25T05:23:51;118336.50;;;-144.97;100.00
42415;BME280;28058;46.344;17.786;2023-02-25T05:26:19;118336.50;;;-144.97;100.00
42415;BME280;28058;46.344;17.786;2023-02-25T05:28:50;118336.50;;;-144.97;100.00
42415;BME280;28058;46.344;17.786;2023-02-25T05:31:17;118336.50;;;-144.97;100.00
42415;BME280;28058;46.344;17.786;2023-02-25T05:33:44;118336.50;;;-144.97;100.00
42415;BME280;28058;46.344;17.786;2023-02-25T05:36:12;118336.50;;;-144.97;100.00
42415;BME280;28058;46.344;17.786;2023-02-25T05:38:39;118336.50;;;-144.97;100.00
42415;BME280;28058;46.344;17.786;2023-02-25T05:41:07;118336.50;;;-144.97;100.00
42415;BME280;28058;46.344;17.786;2023-02-25T05:43:34;118336.50;;;-144.97;100.00
42415;BME280;28058;46.344;17.786;2023-02-25T05:46:01;118336.50;;;-144.97;100.00
42415;BME280;28058;46.344;17.786;2023-02-25T05:48:29;118336.50;;;-144.97;100.00
42415;BME280;28058;46.344;17.786;2023-02-25T05:50:59;118336.50;;;-144.97;100.00
42415;BME280;28058;46.344;17.786;2023-02-25T05:53:26;118336.50;;;-144.97;100.00
42415;BME280;28058;46.344;17.786;2023-02-25T05:55:53;118336.50;;;-144.97;100.00
42415;BME280;28058;46.344;17.786;2023-02-25T05:58:21;118336.50;;;-144.97;100.00
42415;BME280;28058;46.344;17.786;2023-02-25T06:00:48;118336.50;;;-144.97;100.00
42415;BME280;28058;46.344;17.786;2023-02-25T06:03:14;118336.50;;;-144.97;100.00
42415;BME280;28058;46.344;17.786;2023-02-25T06:05:41;118336.50;;;-144.97;100.00
42415;BME280;28058;46.344;17.786;2023-02-25T06:08:10;118336.50;;;-144.97;100.00
42415;BME280;28058;46.344;17.786;2023-02-25T06:10:40;118336.50;;;-144.97;100.00
42415;BME280;28058;46.344;17.786;2023-02-25T06:13:07;118336.50;;;-144.97;100.00
42415;BME280;28058;46.344;17.786;2023-02-25T06:15:37;118336.50;;;-144.97;100.00
42415;BME280;28058;46.344;17.786;2023-02-25T06:18:04;118336.50;;;-144.97;100.00
42415;BME280;28058;46.344;17.786;2023-02-25T06:20:31;118336.50;;;-144.97;100.00
42415;BME280;28058;46.344;17.786;2023-02-25T06:22:58;118336.50;;;-144.97;100.00
42415;BME280;28058;46.344;17.786;2023-02-25T06:25:25;118336.50;;;-144.97;100.00
42415;BME280;28058;46.344;17.786;2023-02-25T06:27:55;118336.50;;;-144.97;100.00
42415;BME280;28058;46.344;17.786;2023-02-25T06:30:22;118336.50;;;-144.97;100.00
42415;BME280;28058;46.344;17.786;2023-02-25T06:32:49;118336.50;;;-144.97;100.00
42415;BME280;28058;46.344;17.786;2023-02-25T06:35:16;118336.50;;;-144.97;100.00
42415;BME280;28058;46.344;17.786;2023-02-25T06:37:43;118336.50;;;-144.97;100.00
42415;BME280;28058;46.344;17.786;2023-02-25T06:40:10;118336.50;;;-144.97;100.00
42415;BME280;28058;46.344;17.786;2023-02-25T06:42:40;118336.50;;;-144.97;100.00
42415;BME280;28058;46.344;17.786;2023-02-25T06:45:08;118336.50;;;-144.97;100.00
42415;BME280;28058;46.344;17.786;2023-02-25T06:47:35;118336.50;;;-144.97;100.00
42415;BME280;28058;46.344;17.786;2023-02-25T06:50:01;118336.50;;;-144.97;100.00
42415;BME280;28058;46.344;17.786;2023-02-25T06:52:28;118336.50;;;-144.97;100.00
42415;BME280;28058;46.344;17.786;2023-02-25T06:54:56;118336.50;;;-144.97;100.00
42415;BME280;28058;46.344;17.786;2023-02-25T06:57:22;118336.50;;;-144.97;100.00
42415;BME280;28058;46.344;17.786;2023-02-25T06:59:49;118336.50;;;-144.97;100.00
42415;BME280;28058;46.344;17.786;2023-02-25T07:02:15;118336.50;;;-144.97;100.00
42415;BME280;28058;46.344;17.786;2023-02-25T07:04:42;118336.50;;;-144.97;100.00
42415;BME280;28058;46.344;17.786;2023-02-25T07:07:09;118336.50;;;-144.97;100.00
42415;BME280;28058;46.344;17.786;2023-02-25T07:09:36;118336.50;;;-144.97;100.00
42415;BME280;28058;46.344;17.786;2023-02-25T07:12:02;118336.50;;;-144.97;100.00
42415;BME280;28058;46.344;17.786;2023-02-25T07:14:29;118336.50;;;-144.97;100.00
42415;BME280;28058;46.344;17.786;2023-02-25T07:16:56;118336.50;;;-144.97;100.00
42415;BME280;28058;46.344;17.786;2023-02-25T07:19:22;118336.50;;;-144.97;100.00
42415;BME280;28058;46.344;17.786;2023-02-25T07:21:49;118336.50;;;-144.97;100.00
42415;BME280;28058;46.344;17.786;2023-02-25T07:24:16;118336.50;;;-144.97;100.00
42415;BME280;28058;46.344;17.786;2023-02-25T07:26:42;118336.50;;;-144.97;100.00
42415;BME280;28058;46.344;17.786;2023-02-25T07:29:09;118336.50;;;-144.97;100.00
42415;BME280;28058;46.344;17.786;2023-02-25T07:31:36;118336.50;;;-144.97;100.00
42415;BME280;28058;46.344;17.786;2023-02-25T07:34:03;118336.50;;;-144.97;100.00
42415;BME280;28058;46.344;17.786;2023-02-25T07:36:30;118336.50;;;-144.97;100.00
42415;BME280;28058;46.344;17.786;2023-02-25T07:38:58;118336.50;;;-144.97;100.00
42415;BME280;28058;46.344;17.786;2023-02-25T07:41:27;118336.50;;;-144.97;100.00
42415;BME280;28058;46.344;17.786;2023-02-25T07:43:54;118336.50;;;-144.97;100.00
42415;BME280;28058;46.344;17.786;2023-02-25T07:46:21;118336.50;;;-144.97;100.00
42415;BME280;28058;46.344;17.786;2023-02-25T07:48:48;118336.50;;;-144.97;100.00
42415;BME280;28058;46.344;17.786;2023-02-25T07:51:20;118336.50;;;-144.97;100.00
42415;BME280;28058;46.344;17.786;2023-02-25T07:53:48;118336.50;;;-144.97;100.00
42415;BME280;28058;46.344;17.786;2023-02-25T07:56:15;118336.50;;;-144.97;100.00
42415;BME280;28058;46.344;17.786;2023-02-25T07:58:42;118336.50;;;-144.97;100.00
42415;BME280;28058;46.344;17.786;2023-02-25T08:01:10;118336.50;;;-144.97;100.00
42415;BME280;28058;46.344;17.786;2023-02-25T08:03:37;118336.50;;;-144.97;100.00
42415;BME280;28058;46.344;17.786;2023-02-25T08:06:04;118336.50;;;-144.97;100.00
42415;BME280;28058;46.344;17.786;2023-02-25T08:08:34;118336.50;;;-144.97;100.00
42415;BME280;28058;46.344;17.786;2023-02-25T08:11:08;118336.50;;;-144.97;100.00
42415;BME280;28058;46.344;17.786;2023-02-25T08:13:35;118336.50;;;-144.97;100.00
42415;BME280;28058;46.344;17.786;2023-02-25T08:16:08;118336.50;;;-144.97;100.00
42415;BME280;28058;46.344;17.786;2023-02-25T08:18:36;118336.50;;;-144.97;100.00
42415;BME280;28058;46.344;17.786;2023-02-25T08:21:03;118336.50;;;-144.97;100.00
42415;BME280;28058;46.344;17.786;2023-02-25T08:23:30;118336.50;;;-144.97;100.00
42415;BME280;28058;46.344;17.786;2023-02-25T08:25:57;118336.50;;;-144.97;100.00
42415;BME280;28058;46.344;17.786;2023-02-25T08:28:25;118336.50;;;-144.97;100.00
42415;BME280;28058;46.344;17.786;2023-02-25T08:30:52;118336.50;;;-144.97;100.00
42415;BME280;28058;46.344;17.786;2023-02-25T08:33:20;118336.50;;;-144.97;100.00
42415;BME280;28058;46.344;17.786;2023-02-25T08:35:46;118336.50;;;-144.97;100.00
42415;BME280;28058;46.344;17.786;2023-02-25T08:38:13;118336.50;;;-144.97;100.00
42415;BME280;28058;46.344;17.786;2023-02-25T08:40:40;118336.50;;;-144.97;100.00
42415;BME280;28058;46.344;17.786;2023-02-25T08:43:07;118336.50;;;-144.97;100.00
42415;BME280;28058;46.344;17.786;2023-02-25T08:45:39;118336.50;;;-144.97;100.00
42415;BME280;28058;46.344;17.786;2023-02-25T08:48:06;118336.50;;;-144.97;100.00
42415;BME280;28058;46.344;17.786;2023-02-25T08:50:32;118336.50;;;-144.97;100.00
42415;BME280;28058;46.344;17.786;2023-02-25T08:52:59;118336.50;;;-144.97;100.00
42415;BME280;28058;46.344;17.786;2023-02-25T08:55:26;118336.50;;;-144.97;100.00
42415;BME280;28058;46.344;17.786;2023-02-25T08:57:52;118336.50;;;-144.97;100.00
42415;BME280;28058;46.344;17.786;2023-02-25T09:00:20;118336.50;;;-144.97;100.00
42415;BME280;28058;46.344;17.786;2023-02-25T09:02:46;118336.50;;;-144.97;100.00
42415;BME280;28058;46.344;17.786;2023-02-25T09:05:13;118336.50;;;-144.97;100.00
42415;BME280;28058;46.344;17.786;2023-02-25T09:07:40;118336.50;;;-144.97;100.00
42415;BME280;28058;46.344;17.786;2023-02-25T09:10:06;118336.50;;;-144.97;100.00
42415;BME280;28058;46.344;17.786;2023-02-25T09:12:34;118336.50;;;-144.97;100.00
42415;BME280;28058;46.344;17.786;2023-02-25T09:15:03;118336.50;;;-144.97;100.00
42415;BME280;28058;46.344;17.786;2023-02-25T09:17:30;118336.50;;;-144.97;100.00
42415;BME280;28058;46.344;17.786;2023-02-25T09:19:57;118336.50;;;-144.97;100.00
42415;BME280;28058;46.344;17.786;2023-02-25T09:22:26;118336.50;;;-144.97;100.00
42415;BME280;28058;46.344;17.786;2023-02-25T09:24:53;118336.50;;;-144.97;100.00
42415;BME280;28058;46.344;17.786;2023-02-25T09:27:20;118336.50;;;-144.97;100.00
42415;BME280;28058;46.344;17.786;2023-02-25T09:29:47;118336.50;;;-144.97;100.00
42415;BME280;28058;46.344;17.786;2023-02-25T09:32:15;118336.50;;;-144.97;100.00
42415;BME280;28058;46.344;17.786;2023-02-25T09:34:42;118336.50;;;-144.97;100.00
42415;BME280;28058;46.344;17.786;2023-02-25T09:37:09;118336.50;;;-144.97;100.00
42415;BME280;28058;46.344;17.786;2023-02-25T09:39:38;118336.50;;;-144.97;100.00
42415;BME280;28058;46.344;17.786;2023-02-25T09:44:41;118336.50;;;-144.97;100.00
42415;BME280;28058;46.344;17.786;2023-02-25T09:57:38;118336.50;;;-144.97;100.00
42415;BME280;28058;46.344;17.786;2023-02-25T10:00:16;118336.50;;;-144.97;100.00
42415;BME280;28058;46.344;17.786;2023-02-25T10:02:47;118336.50;;;-144.97;100.00
42415;BME280;28058;46.344;17.786;2023-02-25T10:08:25;118336.50;;;-144.97;100.00
42415;BME280;28058;46.344;17.786;2023-02-25T10:18:59;118336.50;;;-144.97;100.00
42415;BME280;28058;46.344;17.786;2023-02-25T10:23:59;118336.50;;;-144.97;100.00
42415;BME280;28058;46.344;17.786;2023-02-25T10:26:41;118336.50;;;-144.97;100.00
42415;BME280;28058;46.344;17.786;2023-02-25T10:29:12;118336.50;;;-144.97;100.00
42415;BME280;28058;46.344;17.786;2023-02-25T10:31:41;118336.50;;;-144.97;100.00
42415;BME280;28058;46.344;17.786;2023-02-25T10:34:21;118336.50;;;-144.97;100.00
42415;BME280;28058;46.344;17.786;2023-02-25T10:36:53;118336.50;;;-144.97;100.00
42415;BME280;28058;46.344;17.786;2023-02-25T10:39:20;118336.50;;;-144.97;100.00
42415;BME280;28058;46.344;17.786;2023-02-25T10:41:47;118336.50;;;-144.97;100.00
42415;BME280;28058;46.344;17.786;2023-02-25T10:44:14;118336.50;;;-144.97;100.00
42415;BME280;28058;46.344;17.786;2023-02-25T10:46:46;118336.50;;;-144.97;100.00
42415;BME280;28058;46.344;17.786;2023-02-25T10:49:16;118336.50;;;-144.97;100.00
42415;BME280;28058;46.344;17.786;2023-02-25T10:51:55;118336.50;;;-144.97;100.00
42415;BME280;28058;46.344;17.786;2023-02-25T10:54:22;118336.50;;;-144.97;100.00
42415;BME280;28058;46.344;17.786;2023-02-25T10:56:50;118336.50;;;-144.97;100.00
42415;BME280;28058;46.344;17.786;2023-02-25T10:59:35;118336.50;;;-144.97;100.00
42415;BME280;28058;46.344;17.786;2023-02-25T11:02:20;118336.50;;;-144.97;100.00
42415;BME280;28058;46.344;17.786;2023-02-25T11:04:48;118336.50;;;-144.97;100.00
42415;BME280;28058;46.344;17.786;2023-02-25T11:07:34;118336.50;;;-144.97;100.00
42415;BME280;28058;46.344;17.786;2023-02-25T11:10:10;118336.50;;;-144.97;100.00
42415;BME280;28058;46.344;17.786;2023-02-25T11:12:43;118336.50;;;-144.97;100.00
42415;BME280;28058;46.344;17.786;2023-02-25T11:18:21;118336.50;;;-144.97;100.00
42415;BME280;28058;46.344;17.786;2023-02-25T11:21:02;118336.50;;;-144.97;100.00
42415;BME280;28058;46.344;17.786;2023-02-25T11:23:53;118336.50;;;-144.97;100.00
42415;BME280;28058;46.344;17.786;2023-02-25T11:26:27;118336.50;;;-144.97;100.00
42415;BME280;28058;46.344;17.786;2023-02-25T11:28:57;118336.50;;;-144.97;100.00
42415;BME280;28058;46.344;17.786;2023-02-25T11:31:29;118336.50;;;-144.97;100.00
42415;BME280;28058;46.344;17.786;2023-02-25T11:33:59;118336.50;;;-144.97;100.00
42415;BME280;28058;46.344;17.786;2023-02-25T11:36:29;118336.50;;;-144.97;100.00
42415;BME280;28058;46.344;17.786;2023-02-25T11:39:39;118336.50;;;-144.97;100.00
42415;BME280;28058;46.344;17.786;2023-02-25T11:41:48;118336.50;;;-144.97;100.00
42415;BME280;28058;46.344;17.786;2023-02-25T11:46:56;118336.50;;;-144.97;100.00
42415;BME280;28058;46.344;17.786;2023-02-25T11:55:23;118336.50;;;-144.97;100.00
42415;BME280;28058;46.344;17.786;2023-02-25T12:00:41;118336.50;;;-144.97;100.00
42415;BME280;28058;46.344;17.786;2023-02-25T12:06:11;118336.50;;;-144.97;100.00
42415;BME280;28058;46.344;17.786;2023-02-25T12:24:21;118336.50;;;-144.97;100.00
42415;BME280;28058;46.344;17.786;2023-02-25T12:35:16;118336.50;;;-144.97;100.00
42415;BME280;28058;46.344;17.786;2023-02-25T12:38:07;118336.50;;;-144.97;100.00
42415;BME280;28058;46.344;17.786;2023-02-25T12:40:59;118336.50;;;-144.97;100.00
42415;BME280;28058;46.344;17.786;2023-02-25T12:43:40;118336.50;;;-144.97;100.00
42415;BME280;28058;46.344;17.786;2023-02-25T12:49:07;118336.50;;;-144.97;100.00
42415;BME280;28058;46.344;17.786;2023-02-25T12:54:20;118336.50;;;-144.97;100.00
42415;BME280;28058;46.344;17.786;2023-02-25T13:10:02;118336.50;;;-144.97;100.00
42415;BME280;28058;46.344;17.786;2023-02-25T13:28:51;118336.50;;;-144.97;100.00
42415;BME280;28058;46.344;17.786;2023-02-25T13:52:34;118336.50;;;-144.97;100.00
42415;BME280;28058;46.344;17.786;2023-02-25T14:00:55;118336.50;;;-144.97;100.00
42415;BME280;28058;46.344;17.786;2023-02-25T14:06:26;118336.50;;;-144.97;100.00
42415;BME280;28058;46.344;17.786;2023-02-25T14:29:22;118336.50;;;-144.97;100.00
42415;BME280;28058;46.344;17.786;2023-02-25T14:37:09;118336.50;;;-144.97;100.00
42415;BME280;28058;46.344;17.786;2023-02-25T14:40:05;118336.50;;;-144.97;100.00
42415;BME280;28058;46.344;17.786;2023-02-25T14:42:40;118336.50;;;-144.97;100.00
42415;BME280;28058;46.344;17.786;2023-02-25T14:45:19;118336.50;;;-144.97;100.00
42415;BME280;28058;46.344;17.786;2023-02-25T14:47:56;118336.50;;;-144.97;100.00
42415;BME280;28058;46.344;17.786;2023-02-25T14:50:31;118336.50;;;-144.97;100.00
42415;BME280;28058;46.344;17.786;2023-02-25T14:53:17;118336.50;;;-144.97;100.00
42415;BME280;28058;46.344;17.786;2023-02-25T15:12:13;118336.50;;;-144.97;100.00
42415;BME280;28058;46.344;17.786;2023-02-25T15:17:45;118336.50;;;-144.97;100.00
42415;BME280;28058;46.344;17.786;2023-02-25T15:20:22;118336.50;;;-144.97;100.00
42415;BME280;28058;46.344;17.786;2023-02-25T15:22:52;118336.50;;;-144.97;100.00
42415;BME280;28058;46.344;17.786;2023-02-25T15:27:47;118336.50;;;-144.97;100.00
42415;BME280;28058;46.344;17.786;2023-02-25T15:30:19;118336.50;;;-144.97;100.00
42415;BME280;28058;46.344;17.786;2023-02-25T15:32:57;118336.50;;;-144.97;100.00
42415;BME280;28058;46.344;17.786;2023-02-25T15:38:04;118336.50;;;-144.97;100.00
42415;BME280;28058;46.344;17.786;2023-02-25T15:43:00;118336.50;;;-144.97;100.00
42415;BME280;28058;46.344;17.786;2023-02-25T15:48:40;118336.50;;;-144.97;100.00
42415;BME280;28058;46.344;17.786;2023-02-25T15:55:53;118336.50;;;-144.97;100.00
42415;BME280;28058;46.344;17.786;2023-02-25T15:58:57;118336.50;;;-144.97;100.00
42415;BME280;28058;46.344;17.786;2023-02-25T16:01:35;118336.50;;;-144.97;100.00
42415;BME280;28058;46.344;17.786;2023-02-25T16:04:52;118336.50;;;-144.97;100.00